Nagaleader — VRDD5 — position and weather

sailwx.info

Track history (hours):
 
Tides and Currents Weather Stations Pressure Air Temp Water Temp Dewpoint Dewpoint Depression Visibility Wind Speed Wind Dir Waves Ship Positions

Nagaleader

Last reported at 2015-Jul-03 18:08 UTC. Time now 2015-Jul-04 01:38 UTC.
Position N 22°53' E 120°04'.

Length 113 m; draft 6.3 m.

Type: Cargo ship. MMSI: 477926700.

Date/timePositionNaut miles runAvg speedWind from/ knotsBaromVisibWave heightAir tempDewpointWater temp
2015-Jul-03 18:08N 22°53' E 120°04'610.6
2015-Jul-03 17:34N 22°47' E 120°06'1211.7
2015-Jul-03 16:33N 22°36' E 120°12'8 8.4
2015-Jul-03 15:33N 22°33' E 120°20'1 0.2
2015-Jul-03 07:33N 22°34' E 120°19'0 0.1
2015-Jul-03 06:23N 22°34' E 120°19'0 0.0
2015-Jul-03 04:32N 22°34' E 120°19'0 0.0
2015-Jul-03 03:32N 22°34' E 120°19'1 0.2
2015-Jul-03 00:33N 22°33' E 120°19'7 7.0
2015-Jul-02 23:33N 22°35' E 120°11'1212.2
2015-Jul-02 22:33N 22°46' E 120°06'18110.6
2015-Jul-02 05:31N 25°47' E 119°54'2110.2
2015-Jul-02 03:29N 26°06' E 119°43'9 9.3
2015-Jul-02 02:33N 26°07' E 119°34'8 8.2
2015-Jul-02 01:33N 26°01' E 119°29'0 0.3
2015-Jul-02 00:33N 26°00' E 119°29'0 0.0
2015-Jul-01 23:23N 26°00' E 119°29'0 0.0
2015-Jul-01 22:29N 26°00' E 119°29'0 0.0
2015-Jul-01 21:28N 26°00' E 119°29'0 0.0
2015-Jul-01 20:28N 26°00' E 119°29'0 0.0
2015-Jul-01 19:28N 26°00' E 119°29'0 0.0
2015-Jul-01 18:16N 26°00' E 119°29'0 0.0
2015-Jul-01 17:28N 26°00' E 119°29'0 0.0
2015-Jul-01 16:28N 26°00' E 119°29'0 0.0
2015-Jul-01 15:28N 26°00' E 119°29'0 0.0
2015-Jul-01 14:28N 26°00' E 119°29'0 0.0
2015-Jul-01 13:28N 26°00' E 119°29'0 0.0
2015-Jul-01 12:23N 26°00' E 119°29'3 3.4
2015-Jul-01 11:34N 26°03' E 119°30'48 8.0
2015-Jul-01 05:33N 25°16' E 119°42'1413.7
2015-Jul-01 04:33N 25°19' E 119°28'1111.0
2015-Jul-01 03:33N 25°25' E 119°17'0 0.1
2015-Jul-01 02:33N 25°25' E 119°17'0 0.0
2015-Jul-01 01:33N 25°25' E 119°17'0 0.0
2015-Jul-01 00:33N 25°25' E 119°17'0 0.0
2015-Jun-30 23:33N 25°25' E 119°17'0 0.0
2015-Jun-30 22:32N 25°25' E 119°17'0 0.0
2015-Jun-30 21:32N 25°25' E 119°17'0 0.0
2015-Jun-30 20:33N 25°25' E 119°17'0 0.0
2015-Jun-30 19:29N 25°25' E 119°17'0 0.0
2015-Jun-30 18:23N 25°25' E 119°17'0 0.0
2015-Jun-30 17:29N 25°25' E 119°17'0 0.0
2015-Jun-30 16:29N 25°25' E 119°17'0 0.0
2015-Jun-30 15:23N 25°25' E 119°17'0 0.0
2015-Jun-30 14:29N 25°25' E 119°17'0 0.0
2015-Jun-30 13:28N 25°25' E 119°17'0 0.0
2015-Jun-30 12:30N 25°25' E 119°17'2 1.8
2015-Jun-30 11:33N 25°24' E 119°18'7 6.8
2015-Jun-30 10:34N 25°20' E 119°25'15412.8
2015-Jun-29 22:33N 22°51' E 120°05'1211.9
2015-Jun-29 21:33N 22°40' E 120°10'10 9.9
2015-Jun-29 20:33N 22°33' E 120°18'1 1.2
2015-Jun-29 19:33N 22°34' E 120°19'0 0.0
2015-Jun-29 18:33N 22°34' E 120°19'0 0.0
2015-Jun-29 17:18N 22°34' E 120°19'0 0.0
2015-Jun-29 16:24N 22°34' E 120°19'0 0.0
2015-Jun-29 15:24N 22°34' E 120°19'0 0.0
2015-Jun-29 14:30N 22°34' E 120°19'0 0.0
2015-Jun-29 13:30N 22°34' E 120°19'0 0.0
2015-Jun-29 02:32N 22°33' E 120°19'5 5.5
2015-Jun-29 01:33N 22°31' E 120°13'0 0.4
2015-Jun-29 00:33N 22°31' E 120°13'0 0.3
2015-Jun-28 23:33N 22°31' E 120°13'0 0.0
2015-Jun-28 22:33N 22°31' E 120°13'3 2.6
2015-Jun-28 21:33N 22°33' E 120°12'1312.5
2015-Jun-28 20:33N 22°45' E 120°06'20510.6
2015-Jun-28 01:07N 26°08' E 119°35'611.5
2015-Jun-28 00:33N 26°03' E 119°30'3 2.8
2015-Jun-27 23:33N 26°00' E 119°29'0 0.0
2015-Jun-27 22:33N 26°00' E 119°29'0 0.0
2015-Jun-27 21:33N 26°00' E 119°29'0 0.0
2015-Jun-27 20:33N 26°00' E 119°29'0 0.0
2015-Jun-27 19:33N 26°00' E 119°29'0 0.0
2015-Jun-27 18:33N 26°00' E 119°29'0 0.0
2015-Jun-27 17:33N 26°00' E 119°29'0 0.0
2015-Jun-27 16:33N 26°00' E 119°29'0 0.0
2015-Jun-27 15:33N 26°00' E 119°29'0 0.0
2015-Jun-27 14:33N 26°00' E 119°29'0 0.0
2015-Jun-27 13:33N 26°00' E 119°29'0 0.0
2015-Jun-27 12:33N 26°00' E 119°29'0 0.0
2015-Jun-27 11:32N 26°00' E 119°29'0 0.0
2015-Jun-27 10:33N 26°00' E 119°29'0 0.0
2015-Jun-27 09:33N 26°00' E 119°29'2 1.7
2015-Jun-27 08:33N 26°02' E 119°30'19211.9
2015-Jun-26 16:25N 22°52' E 120°04'1012.0
2015-Jun-26 15:33N 22°42' E 120°08'1110.9
2015-Jun-26 14:33N 22°33' E 120°14'4 4.4
2015-Jun-26 13:34N 22°34' E 120°19'0 0.0
2015-Jun-26 12:33N 22°34' E 120°19'0 0.0
2015-Jun-26 11:30N 22°34' E 120°19'0 0.1
2015-Jun-26 10:30N 22°34' E 120°19'0 0.0
2015-Jun-26 09:30N 22°34' E 120°19'0 0.0
2015-Jun-26 08:11N 22°34' E 120°19'0 0.1
2015-Jun-26 07:29N 22°34' E 120°19'0 0.0
2015-Jun-26 06:29N 22°34' E 120°19'1 0.9
2015-Jun-26 05:33N 22°33' E 120°20'0 0.0
2015-Jun-25 22:33N 22°33' E 120°20'7 7.5
2015-Jun-25 21:33N 22°34' E 120°12'1212.4
2015-Jun-25 20:33N 22°45' E 120°07'20510.5
2015-Jun-25 01:07N 26°08' E 119°35'813.5
2015-Jun-25 00:33N 26°02' E 119°30'2 1.9
2015-Jun-24 23:28N 26°00' E 119°29'0 0.0
2015-Jun-24 22:28N 26°00' E 119°29'0 0.0
2015-Jun-24 21:10N 26°00' E 119°29'0 0.0
2015-Jun-24 20:28N 26°00' E 119°29'0 0.0
2015-Jun-24 19:28N 26°00' E 119°29'0 0.0
2015-Jun-24 18:28N 26°00' E 119°29'0 0.0
2015-Jun-24 17:28N 26°00' E 119°29'0 0.0
2015-Jun-24 16:22N 26°00' E 119°29'0 0.0
2015-Jun-24 15:28N 26°00' E 119°29'0 0.0
2015-Jun-24 14:16N 26°00' E 119°29'0 0.0
2015-Jun-24 13:28N 26°00' E 119°29'0 0.0
2015-Jun-24 12:22N 26°00' E 119°29'0 0.0
2015-Jun-24 11:34N 26°00' E 119°29'0 0.0
2015-Jun-24 10:27N 26°00' E 119°29'0 0.0
2015-Jun-24 09:27N 26°00' E 119°29'0 0.0
2015-Jun-24 08:33N 26°00' E 119°29'0 0.0
2015-Jun-24 07:33N 26°00' E 119°29'0 0.0
2015-Jun-24 06:33N 26°00' E 119°29'0 0.0
2015-Jun-24 05:21N 26°00' E 119°29'0 0.0
2015-Jun-24 04:33N 26°00' E 119°29'0 0.0
2015-Jun-24 03:33N 26°00' E 119°29'0 0.0
2015-Jun-24 02:33N 26°00' E 119°29'0 0.0
2015-Jun-24 01:33N 26°00' E 119°29'4 4.2
2015-Jun-24 00:33N 26°04' E 119°31'  
Track history (hours):
 
Tides and Currents Weather Stations Pressure Air Temp Water Temp Dewpoint Dewpoint Depression Visibility Wind Speed Wind Dir Waves Ship Positions

Nagaleader

Last reported at 2015-Jul-03 18:08 UTC. Time now 2015-Jul-04 01:38 UTC.
Position N 22°53' E 120°04'.

Length 113 m; draft 6.3 m.

Type: Cargo ship. MMSI: 477926700.

Date/timePositionNaut miles runAvg speedWind from/ knotsBaromVisibWave heightAir tempDewpointWater temp
2015-Jul-03 18:08N 22°53' E 120°04'610.6
2015-Jul-03 17:34N 22°47' E 120°06'1211.7
2015-Jul-03 16:33N 22°36' E 120°12'8 8.4
2015-Jul-03 15:33N 22°33' E 120°20'1 0.2
2015-Jul-03 07:33N 22°34' E 120°19'0 0.1
2015-Jul-03 06:23N 22°34' E 120°19'0 0.0
2015-Jul-03 04:32N 22°34' E 120°19'0 0.0
2015-Jul-03 03:32N 22°34' E 120°19'1 0.2
2015-Jul-03 00:33N 22°33' E 120°19'7 7.0
2015-Jul-02 23:33N 22°35' E 120°11'1212.2
2015-Jul-02 22:33N 22°46' E 120°06'18110.6
2015-Jul-02 05:31N 25°47' E 119°54'2110.2
2015-Jul-02 03:29N 26°06' E 119°43'9 9.3
2015-Jul-02 02:33N 26°07' E 119°34'8 8.2
2015-Jul-02 01:33N 26°01' E 119°29'0 0.3
2015-Jul-02 00:33N 26°00' E 119°29'0 0.0
2015-Jul-01 23:23N 26°00' E 119°29'0 0.0
2015-Jul-01 22:29N 26°00' E 119°29'0 0.0
2015-Jul-01 21:28N 26°00' E 119°29'0 0.0
2015-Jul-01 20:28N 26°00' E 119°29'0 0.0
2015-Jul-01 19:28N 26°00' E 119°29'0 0.0
2015-Jul-01 18:16N 26°00' E 119°29'0 0.0
2015-Jul-01 17:28N 26°00' E 119°29'0 0.0
2015-Jul-01 16:28N 26°00' E 119°29'0 0.0
2015-Jul-01 15:28N 26°00' E 119°29'0 0.0
2015-Jul-01 14:28N 26°00' E 119°29'0 0.0
2015-Jul-01 13:28N 26°00' E 119°29'0 0.0
2015-Jul-01 12:23N 26°00' E 119°29'3 3.4
2015-Jul-01 11:34N 26°03' E 119°30'48 8.0
2015-Jul-01 05:33N 25°16' E 119°42'1413.7
2015-Jul-01 04:33N 25°19' E 119°28'1111.0
2015-Jul-01 03:33N 25°25' E 119°17'0 0.1
2015-Jul-01 02:33N 25°25' E 119°17'0 0.0
2015-Jul-01 01:33N 25°25' E 119°17'0 0.0
2015-Jul-01 00:33N 25°25' E 119°17'0 0.0
2015-Jun-30 23:33N 25°25' E 119°17'0 0.0
2015-Jun-30 22:32N 25°25' E 119°17'0 0.0
2015-Jun-30 21:32N 25°25' E 119°17'0 0.0
2015-Jun-30 20:33N 25°25' E 119°17'0 0.0
2015-Jun-30 19:29N 25°25' E 119°17'0 0.0
2015-Jun-30 18:23N 25°25' E 119°17'0 0.0
2015-Jun-30 17:29N 25°25' E 119°17'0 0.0
2015-Jun-30 16:29N 25°25' E 119°17'0 0.0
2015-Jun-30 15:23N 25°25' E 119°17'0 0.0
2015-Jun-30 14:29N 25°25' E 119°17'0 0.0
2015-Jun-30 13:28N 25°25' E 119°17'0 0.0
2015-Jun-30 12:30N 25°25' E 119°17'2 1.8
2015-Jun-30 11:33N 25°24' E 119°18'7 6.8
2015-Jun-30 10:34N 25°20' E 119°25'15412.8
2015-Jun-29 22:33N 22°51' E 120°05'1211.9
2015-Jun-29 21:33N 22°40' E 120°10'10 9.9
2015-Jun-29 20:33N 22°33' E 120°18'1 1.2
2015-Jun-29 19:33N 22°34' E 120°19'0 0.0
2015-Jun-29 18:33N 22°34' E 120°19'0 0.0
2015-Jun-29 17:18N 22°34' E 120°19'0 0.0
2015-Jun-29 16:24N 22°34' E 120°19'0 0.0
2015-Jun-29 15:24N 22°34' E 120°19'0 0.0
2015-Jun-29 14:30N 22°34' E 120°19'0 0.0
2015-Jun-29 13:30N 22°34' E 120°19'0 0.0
2015-Jun-29 02:32N 22°33' E 120°19'5 5.5
2015-Jun-29 01:33N 22°31' E 120°13'0 0.4
2015-Jun-29 00:33N 22°31' E 120°13'0 0.3
2015-Jun-28 23:33N 22°31' E 120°13'0 0.0
2015-Jun-28 22:33N 22°31' E 120°13'3 2.6
2015-Jun-28 21:33N 22°33' E 120°12'1312.5
2015-Jun-28 20:33N 22°45' E 120°06'20510.6
2015-Jun-28 01:07N 26°08' E 119°35'611.5
2015-Jun-28 00:33N 26°03' E 119°30'3 2.8
2015-Jun-27 23:33N 26°00' E 119°29'0 0.0
2015-Jun-27 22:33N 26°00' E 119°29'0 0.0
2015-Jun-27 21:33N 26°00' E 119°29'0 0.0
2015-Jun-27 20:33N 26°00' E 119°29'0 0.0
2015-Jun-27 19:33N 26°00' E 119°29'0 0.0
2015-Jun-27 18:33N 26°00' E 119°29'0 0.0
2015-Jun-27 17:33N 26°00' E 119°29'0 0.0
2015-Jun-27 16:33N 26°00' E 119°29'0 0.0
2015-Jun-27 15:33N 26°00' E 119°29'0 0.0
2015-Jun-27 14:33N 26°00' E 119°29'0 0.0
2015-Jun-27 13:33N 26°00' E 119°29'0 0.0
2015-Jun-27 12:33N 26°00' E 119°29'0 0.0
2015-Jun-27 11:32N 26°00' E 119°29'0 0.0
2015-Jun-27 10:33N 26°00' E 119°29'0 0.0
2015-Jun-27 09:33N 26°00' E 119°29'2 1.7
2015-Jun-27 08:33N 26°02' E 119°30'19211.9
2015-Jun-26 16:25N 22°52' E 120°04'1012.0
2015-Jun-26 15:33N 22°42' E 120°08'1110.9
2015-Jun-26 14:33N 22°33' E 120°14'4 4.4
2015-Jun-26 13:34N 22°34' E 120°19'0 0.0
2015-Jun-26 12:33N 22°34' E 120°19'0 0.0
2015-Jun-26 11:30N 22°34' E 120°19'0 0.1
2015-Jun-26 10:30N 22°34' E 120°19'0 0.0
2015-Jun-26 09:30N 22°34' E 120°19'0 0.0
2015-Jun-26 08:11N 22°34' E 120°19'0 0.1
2015-Jun-26 07:29N 22°34' E 120°19'0 0.0
2015-Jun-26 06:29N 22°34' E 120°19'1 0.9
2015-Jun-26 05:33N 22°33' E 120°20'0 0.0
2015-Jun-25 22:33N 22°33' E 120°20'7 7.5
2015-Jun-25 21:33N 22°34' E 120°12'1212.4
2015-Jun-25 20:33N 22°45' E 120°07'20510.5
2015-Jun-25 01:07N 26°08' E 119°35'813.5
2015-Jun-25 00:33N 26°02' E 119°30'2 1.9
2015-Jun-24 23:28N 26°00' E 119°29'0 0.0
2015-Jun-24 22:28N 26°00' E 119°29'0 0.0
2015-Jun-24 21:10N 26°00' E 119°29'0 0.0
2015-Jun-24 20:28N 26°00' E 119°29'0 0.0
2015-Jun-24 19:28N 26°00' E 119°29'0 0.0
2015-Jun-24 18:28N 26°00' E 119°29'0 0.0
2015-Jun-24 17:28N 26°00' E 119°29'0 0.0
2015-Jun-24 16:22N 26°00' E 119°29'0 0.0
2015-Jun-24 15:28N 26°00' E 119°29'0 0.0
2015-Jun-24 14:16N 26°00' E 119°29'0 0.0
2015-Jun-24 13:28N 26°00' E 119°29'0 0.0
2015-Jun-24 12:22N 26°00' E 119°29'0 0.0
2015-Jun-24 11:34N 26°00' E 119°29'0 0.0
2015-Jun-24 10:27N 26°00' E 119°29'0 0.0
2015-Jun-24 09:27N 26°00' E 119°29'0 0.0
2015-Jun-24 08:33N 26°00' E 119°29'0 0.0
2015-Jun-24 07:33N 26°00' E 119°29'0 0.0
2015-Jun-24 06:33N 26°00' E 119°29'0 0.0
2015-Jun-24 05:21N 26°00' E 119°29'0 0.0
2015-Jun-24 04:33N 26°00' E 119°29'0 0.0
2015-Jun-24 03:33N 26°00' E 119°29'0 0.0
2015-Jun-24 02:33N 26°00' E 119°29'0 0.0
2015-Jun-24 01:33N 26°00' E 119°29'4 4.2
2015-Jun-24 00:33N 26°04' E 119°31'  

Dump ship's entire track history